Time;durP1;ratioP1;P1;durP2;ratioP2;P2;SDS_P1;SDS_P2;PMS_P1;PMS_P2;Temp;Humidity;BMP_temperature;BMP_pressure;BME280_temperature;BME280_humidity;BME280_pressure;Samples;Min_cycle;Max_cycle;Signal;HPM_P1;HPM_P2
2022/08/30 00:02:41;;;;;;;11.60;6.07;;;16.60;99.90;;;;;;4825533;29;20220;-79
2022/08/30 00:05:10;;;;;;;9.47;5.80;;;16.50;99.90;;;;;;4825498;29;20293;-79
2022/08/30 00:07:53;;;;;;;14.37;7.03;;;16.50;99.90;;;;;;4825011;29;20285;-79
2022/08/30 00:10:20;;;;;;;12.90;6.17;;;16.60;99.90;;;;;;4810265;29;20267;-78
2022/08/30 00:12:48;;;;;;;8.77;5.87;;;16.50;99.90;;;;;;4810400;29;20262;-76
2022/08/30 00:15:17;;;;;;;9.17;5.77;;;16.50;99.90;;;;;;4826648;29;20217;-78
2022/08/30 00:17:44;;;;;;;9.77;6.20;;;16.50;99.90;;;;;;4826525;29;20209;-77
2022/08/30 00:20:14;;;;;;;12.53;6.30;;;16.50;99.90;;;;;;4810580;29;20202;-78
2022/08/30 00:22:54;;;;;;;11.43;6.17;;;16.40;99.90;;;;;;4824816;29;20218;-78
2022/08/30 00:25:21;;;;;;;10.67;6.10;;;16.50;99.90;;;;;;4825164;29;20202;-77
2022/08/30 00:27:49;;;;;;;10.63;6.37;;;16.40;99.90;;;;;;4825149;29;20377;-78
2022/08/30 00:30:18;;;;;;;10.33;6.17;;;16.40;99.90;;;;;;4825444;29;20207;-77
2022/08/30 00:32:45;;;;;;;11.00;6.20;;;16.30;99.90;;;;;;4825132;29;20306;-78
2022/08/30 00:35:14;;;;;;;10.23;6.30;;;16.30;99.90;;;;;;4824801;29;20196;-78
2022/08/30 00:37:50;;;;;;;14.83;6.80;;;16.20;99.90;;;;;;4824921;29;20670;-78
2022/08/30 00:40:19;;;;;;;9.93;6.10;;;16.20;99.90;;;;;;4824756;29;20215;-78
2022/08/30 00:43:00;;;;;;;10.73;6.20;;;16.20;99.90;;;;;;4824953;29;20203;-78
2022/08/30 00:45:36;;;;;;;10.90;6.27;;;16.30;99.90;;;;;;4824827;29;20199;-79
2022/08/30 00:48:04;;;;;;;11.27;6.30;;;16.30;99.90;;;;;;4824742;29;20561;-79
2022/08/30 00:50:45;;;;;;;14.03;6.77;;;16.30;99.90;;;;;;4824652;29;20259;-79
2022/08/30 00:53:17;;;;;;;12.23;6.27;;;16.30;99.90;;;;;;4824219;29;20209;-78
2022/08/30 00:55:47;;;;;;;15.67;6.23;;;16.20;99.90;;;;;;4824421;29;20195;-79
2022/08/30 00:58:21;;;;;;;11.53;6.57;;;16.20;99.90;;;;;;4824600;29;20242;-76
2022/08/30 01:00:52;;;;;;;11.87;6.20;;;16.30;99.90;;;;;;4824894;29;20692;-78
2022/08/30 01:03:20;;;;;;;8.43;5.87;;;16.20;99.90;;;;;;4825545;29;20202;-77
2022/08/30 01:05:49;;;;;;;11.20;6.33;;;16.20;99.90;;;;;;4824587;29;20298;-79
2022/08/30 01:08:16;;;;;;;10.20;6.67;;;16.30;99.90;;;;;;4825548;29;20282;-78
2022/08/30 01:10:43;;;;;;;9.77;6.40;;;16.20;99.90;;;;;;4824307;29;20203;-79
2022/08/30 01:13:12;;;;;;;10.37;6.27;;;16.20;99.90;;;;;;4824285;29;20576;-80
2022/08/30 01:15:44;;;;;;;9.10;5.97;;;16.20;99.90;;;;;;4824817;29;20211;-78
2022/08/30 01:18:13;;;;;;;10.73;6.50;;;16.10;99.90;;;;;;4824425;29;20205;-77
2022/08/30 01:21:05;;;;;;;9.00;6.27;;;16.10;99.90;;;;;;4823181;29;20313;-78
2022/08/30 01:23:35;;;;;;;12.37;6.33;;;16.20;99.90;;;;;;4769378;30;20289;-78
2022/08/30 01:26:04;;;;;;;10.70;6.27;;;16.20;99.90;;;;;;4769264;30;20840;-78
2022/08/30 01:28:33;;;;;;;10.20;6.40;;;16.20;99.90;;;;;;4769248;30;20237;-78
2022/08/30 01:31:07;;;;;;;11.47;6.60;;;16.20;99.90;;;;;;4754254;30;20703;-78
2022/08/30 01:33:37;;;;;;;10.40;6.70;;;16.20;99.90;;;;;;4769093;30;20664;-78
2022/08/30 01:36:10;;;;;;;11.83;7.23;;;16.20;99.90;;;;;;4769448;30;20230;-78
2022/08/30 01:38:50;;;;;;;13.00;6.63;;;16.10;99.90;;;;;;4768031;30;20236;-78
2022/08/30 01:41:21;;;;;;;10.93;6.50;;;16.10;99.90;;;;;;4753973;30;20228;-78
2022/08/30 01:43:50;;;;;;;10.73;7.00;;;16.10;99.90;;;;;;4768912;30;20224;-78
2022/08/30 01:46:19;;;;;;;13.00;6.97;;;16.10;99.90;;;;;;4768910;30;20213;-79
2022/08/30 01:48:54;;;;;;;10.53;6.60;;;16.20;99.90;;;;;;4768618;30;20278;-78
2022/08/30 01:51:24;;;;;;;11.43;7.30;;;16.20;99.90;;;;;;4753680;30;20726;-77
2022/08/30 01:53:56;;;;;;;13.93;6.57;;;16.20;99.90;;;;;;4768598;30;20274;-77
2022/08/30 01:56:25;;;;;;;13.10;7.33;;;16.20;99.90;;;;;;4768645;30;20299;-77
2022/08/30 01:58:54;;;;;;;11.87;7.40;;;16.10;99.90;;;;;;4768720;30;20211;-79
2022/08/30 02:01:31;;;;;;;13.43;7.50;;;16.20;99.90;;;;;;4828464;29;20286;-78
2022/08/30 02:03:59;;;;;;;12.00;7.70;;;16.10;99.90;;;;;;4823450;29;20198;-79
2022/08/30 02:06:26;;;;;;;11.90;7.23;;;16.00;99.90;;;;;;4824285;29;20252;-78
2022/08/30 02:08:54;;;;;;;11.03;7.20;;;16.10;99.90;;;;;;4823852;29;20301;-77
2022/08/30 02:11:21;;;;;;;13.90;7.60;;;16.10;99.90;;;;;;4823602;29;20211;-78
2022/08/30 02:13:50;;;;;;;12.10;8.03;;;16.10;99.90;;;;;;4808699;29;20239;-78
2022/08/30 02:16:23;;;;;;;16.90;8.40;;;16.00;99.90;;;;;;4823309;29;20209;-78
2022/08/30 02:18:51;;;;;;;22.33;8.50;;;16.00;99.90;;;;;;4823504;29;20199;-78
2022/08/30 02:21:19;;;;;;;14.13;7.87;;;16.00;99.90;;;;;;4823280;29;20219;-78
2022/08/30 02:23:46;;;;;;;15.33;8.23;;;15.90;99.90;;;;;;4822957;29;20745;-78
2022/08/30 02:26:13;;;;;;;11.47;7.83;;;15.90;99.90;;;;;;4823338;29;20210;-78
2022/08/30 02:28:42;;;;;;;15.40;8.50;;;15.90;99.90;;;;;;4823037;29;20235;-79
2022/08/30 02:31:25;;;;;;;13.60;7.70;;;15.90;99.90;;;;;;4822820;29;20706;-78
2022/08/30 02:33:52;;;;;;;15.00;8.10;;;15.90;99.90;;;;;;4822913;29;20242;-78
2022/08/30 02:36:20;;;;;;;16.57;8.53;;;15.90;99.90;;;;;;4823141;29;20306;-79
2022/08/30 02:38:48;;;;;;;13.17;7.97;;;15.90;99.90;;;;;;4822915;29;20283;-78
2022/08/30 02:41:17;;;;;;;14.87;8.20;;;15.80;99.90;;;;;;4824114;29;20226;-80
2022/08/30 02:43:44;;;;;;;13.63;8.10;;;15.90;99.90;;;;;;4823328;29;20630;-79
2022/08/30 02:46:12;;;;;;;12.07;7.70;;;15.90;99.90;;;;;;4823045;29;20203;-78
2022/08/30 02:48:43;;;;;;;14.27;8.90;;;15.80;99.90;;;;;;4823618;29;20214;-78
2022/08/30 02:51:12;;;;;;;13.37;7.70;;;15.90;99.90;;;;;;4823101;29;20259;-79
2022/08/30 02:53:40;;;;;;;15.17;8.30;;;15.90;99.90;;;;;;4823182;29;20726;-77
2022/08/30 02:56:07;;;;;;;16.53;8.33;;;15.90;99.90;;;;;;4822953;29;20301;-77
2022/08/30 02:58:35;;;;;;;15.40;8.93;;;15.90;99.90;;;;;;4822886;29;20203;-78
2022/08/30 03:01:04;;;;;;;13.03;8.53;;;15.80;99.90;;;;;;4824116;29;20213;-78
2022/08/30 03:03:32;;;;;;;13.60;8.77;;;15.70;99.90;;;;;;4822785;29;20207;-81
2022/08/30 03:05:59;;;;;;;13.13;8.53;;;15.70;99.90;;;;;;4823337;29;20210;-81
2022/08/30 03:08:27;;;;;;;14.50;9.00;;;15.70;99.90;;;;;;4822729;29;20576;-78
2022/08/30 03:10:55;;;;;;;15.90;8.77;;;15.70;99.90;;;;;;4822487;29;20665;-77
2022/08/30 03:13:23;;;;;;;15.87;9.30;;;15.70;99.90;;;;;;4824142;29;20198;-77
2022/08/30 03:15:50;;;;;;;13.47;8.53;;;15.70;99.90;;;;;;4823033;29;20223;-77
2022/08/30 03:18:19;;;;;;;14.53;9.13;;;15.70;99.90;;;;;;4823994;29;20217;-78
2022/08/30 03:20:47;;;;;;;17.00;9.17;;;15.70;99.90;;;;;;4822665;29;20207;-78
2022/08/30 03:23:20;;;;;;;15.17;8.93;;;15.70;99.90;;;;;;4822464;29;20222;-79
2022/08/30 03:25:48;;;;;;;16.00;8.70;;;15.70;99.90;;;;;;4822699;29;20207;-80
2022/08/30 03:28:15;;;;;;;15.63;9.37;;;15.80;99.90;;;;;;4824213;29;20205;-79
2022/08/30 03:30:42;;;;;;;18.17;10.43;;;15.70;99.90;;;;;;4822703;29;20614;-80
2022/08/30 03:33:09;;;;;;;13.83;9.53;;;15.60;99.90;;;;;;4822493;29;20649;-79
2022/08/30 03:35:37;;;;;;;18.73;9.87;;;15.60;99.90;;;;;;4822533;29;20300;-79
2022/08/30 03:38:05;;;;;;;13.97;10.10;;;15.60;99.90;;;;;;4822333;29;20266;-79
2022/08/30 03:40:32;;;;;;;16.20;10.00;;;15.60;99.90;;;;;;4822748;29;20210;-77
2022/08/30 03:42:59;;;;;;;15.43;9.43;;;15.50;99.90;;;;;;4822912;29;20712;-78
2022/08/30 03:45:27;;;;;;;15.83;9.57;;;15.40;99.90;;;;;;4826880;29;20195;-78
2022/08/30 03:47:54;;;;;;;17.27;10.27;;;15.50;99.90;;;;;;4825912;29;20210;-79
2022/08/30 03:50:22;;;;;;;14.63;10.27;;;15.40;99.90;;;;;;4825481;29;20249;-78
2022/08/30 03:52:49;;;;;;;15.83;9.97;;;15.40;99.90;;;;;;4825492;29;20601;-79
2022/08/30 03:55:16;;;;;;;19.03;10.63;;;15.50;99.90;;;;;;4826763;29;20199;-78
2022/08/30 03:57:42;;;;;;;15.97;10.43;;;15.40;99.90;;;;;;4825729;29;20612;-78
2022/08/30 04:00:10;;;;;;;17.30;9.87;;;15.40;99.90;;;;;;4826860;29;20262;-79
2022/08/30 04:02:38;;;;;;;16.90;10.60;;;15.50;99.90;;;;;;4825264;29;20252;-79
2022/08/30 04:05:05;;;;;;;16.80;10.57;;;15.50;99.90;;;;;;4825465;29;20217;-80
2022/08/30 04:07:32;;;;;;;16.53;10.47;;;15.50;99.90;;;;;;4825756;29;20660;-80
2022/08/30 04:09:59;;;;;;;15.20;10.37;;;15.50;99.90;;;;;;4825903;29;20202;-81
2022/08/30 04:12:27;;;;;;;18.30;10.90;;;15.50;99.90;;;;;;4826479;29;20283;-81
2022/08/30 04:14:54;;;;;;;17.43;10.80;;;15.50;99.90;;;;;;4825351;29;20206;-83
2022/08/30 04:17:21;;;;;;;18.37;10.77;;;15.50;99.90;;;;;;4825261;29;20667;-79
2022/08/30 04:19:51;;;;;;;23.97;11.63;;;15.40;99.90;;;;;;4826730;29;20183;-80
2022/08/30 04:22:18;;;;;;;22.20;11.40;;;15.40;99.90;;;;;;4824957;29;20255;-80
2022/08/30 04:24:45;;;;;;;18.47;11.03;;;15.50;99.90;;;;;;4825088;29;20586;-80
2022/08/30 04:27:12;;;;;;;20.70;11.33;;;15.50;99.90;;;;;;4826448;29;20191;-80
2022/08/30 04:29:42;;;;;;;15.93;10.70;;;15.60;99.90;;;;;;4825013;29;20271;-80
2022/08/30 04:32:10;;;;;;;23.50;12.10;;;15.70;99.90;;;;;;4824654;29;20218;-79
2022/08/30 04:34:37;;;;;;;19.47;10.63;;;15.70;99.90;;;;;;4824851;29;20286;-80
2022/08/30 04:37:04;;;;;;;19.10;11.87;;;15.70;99.90;;;;;;4825261;29;20211;-80
2022/08/30 04:39:42;;;;;;;15.80;10.37;;;15.70;99.90;;;;;;4825232;29;20309;-81
2022/08/30 04:42:10;;;;;;;19.57;10.97;;;15.80;99.90;;;;;;4824562;29;20235;-79
2022/08/30 04:44:37;;;;;;;16.70;10.80;;;15.80;99.90;;;;;;4824821;29;20215;-79
2022/08/30 04:47:04;;;;;;;15.80;10.67;;;15.80;99.90;;;;;;4826034;29;20191;-79
2022/08/30 04:49:31;;;;;;;18.20;11.03;;;15.90;99.90;;;;;;4824646;29;20811;-80
2022/08/30 04:52:05;;;;;;;16.87;11.17;;;15.70;99.90;;;;;;4809732;29;20199;-80
2022/08/30 04:54:32;;;;;;;16.07;11.40;;;15.90;99.90;;;;;;4809986;29;20207;-81
2022/08/30 04:56:59;;;;;;;15.43;10.47;;;15.90;99.90;;;;;;4825595;29;20230;-79
2022/08/30 04:59:27;;;;;;;18.57;10.40;;;16.00;99.90;;;;;;4809468;29;20628;-80
2022/08/30 05:01:54;;;;;;;14.77;9.53;;;16.00;99.90;;;;;;4809366;29;20236;-79
2022/08/30 05:04:21;;;;;;;16.40;10.27;;;16.20;99.90;;;;;;4825545;29;20180;-80
2022/08/30 05:06:55;;;;;;;14.47;9.53;;;16.00;99.90;;;;;;4794613;29;20242;-80
2022/08/30 05:09:25;;;;;;;16.17;9.40;;;16.20;99.90;;;;;;4809432;29;20205;-79
2022/08/30 05:12:01;;;;;;;14.77;9.23;;;16.30;99.90;;;;;;4809586;29;20270;-80
2022/08/30 05:14:48;;;;;;;17.87;9.47;;;16.40;99.90;;;;;;4809987;29;20210;-80
2022/08/30 05:17:15;;;;;;;15.57;9.03;;;16.50;99.90;;;;;;4809458;29;20296;-80
2022/08/30 05:19:43;;;;;;;15.23;9.13;;;16.40;99.90;;;;;;4809939;29;20233;-80
2022/08/30 05:22:23;;;;;;;13.10;8.70;;;16.50;99.90;;;;;;4771338;30;20297;-81
2022/08/30 05:24:58;;;;;;;12.20;8.40;;;16.60;99.90;;;;;;4772025;30;20228;-80
2022/08/30 05:27:48;;;;;;;13.30;8.60;;;16.40;99.90;;;;;;4771795;30;20316;-79
2022/08/30 05:30:26;;;;;;;11.43;8.33;;;16.40;99.90;;;;;;4751283;30;20747;-80
2022/08/30 05:32:53;;;;;;;14.07;8.63;;;16.20;99.90;;;;;;4751068;30;20220;-78
2022/08/30 05:35:21;;;;;;;10.93;7.40;;;16.30;99.90;;;;;;4736545;30;20224;-79
2022/08/30 05:37:54;;;;;;;12.23;7.60;;;16.50;99.90;;;;;;4751184;30;20298;-79
2022/08/30 05:40:24;;;;;;;10.50;7.70;;;16.50;99.90;;;;;;4736236;30;20206;-79
2022/08/30 05:42:55;;;;;;;11.10;7.60;;;16.60;99.90;;;;;;4751176;30;20248;-80
2022/08/30 05:45:33;;;;;;;12.27;7.33;;;16.70;99.90;;;;;;4752605;30;20247;-79
2022/08/30 05:48:03;;;;;;;10.50;6.50;;;16.70;99.90;;;;;;4751431;30;20232;-80
2022/08/30 05:50:41;;;;;;;8.80;6.40;;;16.60;99.90;;;;;;4750954;30;20229;-80
2022/08/30 05:53:11;;;;;;;10.33;6.10;;;16.60;99.90;;;;;;4759403;30;20254;-79
2022/08/30 05:55:40;;;;;;;7.87;5.70;;;16.70;99.90;;;;;;4754383;30;20211;-79
2022/08/30 05:58:07;;;;;;;9.47;5.37;;;16.60;99.90;;;;;;4768565;30;20213;-80
2022/08/30 06:00:36;;;;;;;8.80;5.33;;;16.70;99.90;;;;;;4769023;30;20779;-79
2022/08/30 06:03:04;;;;;;;8.47;5.50;;;16.70;99.90;;;;;;4768791;30;20263;-81
2022/08/30 06:05:31;;;;;;;11.27;5.07;;;16.70;99.90;;;;;;4768561;30;20698;-80
2022/08/30 06:08:01;;;;;;;9.60;5.37;;;16.70;99.90;;;;;;4812198;29;20203;-81
2022/08/30 06:10:28;;;;;;;8.40;5.33;;;16.80;99.90;;;;;;4808421;29;20656;-80
2022/08/30 06:12:55;;;;;;;6.50;4.47;;;16.70;99.90;;;;;;4824444;29;20693;-79
2022/08/30 06:15:22;;;;;;;8.63;4.90;;;16.90;99.90;;;;;;4793410;29;20210;-79
2022/08/30 06:17:48;;;;;;;7.83;4.10;;;17.10;99.90;;;;;;4825044;29;20208;-78
2022/08/30 06:20:17;;;;;;;10.43;4.00;;;17.10;99.90;;;;;;4831768;29;20290;-78
2022/08/30 06:22:45;;;;;;;7.33;4.00;;;17.10;99.90;;;;;;4825134;29;20675;-78
2022/08/30 06:25:15;;;;;;;5.23;3.50;;;17.30;99.90;;;;;;4808056;29;20566;-78
2022/08/30 06:27:45;;;;;;;7.70;4.20;;;17.20;99.90;;;;;;4808409;29;20866;-79
2022/08/30 06:30:12;;;;;;;9.17;4.80;;;17.30;99.90;;;;;;4808270;29;20302;-79
2022/08/30 06:32:39;;;;;;;9.20;5.43;;;17.50;99.90;;;;;;4807824;29;20299;-79
2022/08/30 06:35:07;;;;;;;6.63;4.40;;;17.60;99.90;;;;;;4824741;29;20259;-79
2022/08/30 06:37:34;;;;;;;5.83;4.23;;;17.80;99.90;;;;;;4825457;29;20226;-79
2022/08/30 06:40:17;;;;;;;5.67;4.00;;;17.90;99.90;;;;;;4771060;30;20654;-78
2022/08/30 06:42:44;;;;;;;6.37;4.00;;;17.80;99.90;;;;;;4770757;30;20228;-79
2022/08/30 06:45:11;;;;;;;6.80;3.93;;;17.90;99.90;;;;;;4771250;30;20299;-79
2022/08/30 06:47:39;;;;;;;6.03;3.50;;;17.80;99.90;;;;;;4786047;30;20211;-78
2022/08/30 06:50:08;;;;;;;6.33;3.50;;;17.70;99.90;;;;;;4770935;30;20254;-80
2022/08/30 06:52:42;;;;;;;5.60;3.53;;;17.90;99.90;;;;;;4786059;30;20271;-80
2022/08/30 06:55:14;;;;;;;5.50;3.20;;;17.90;99.90;;;;;;4786155;30;20204;-79
2022/08/30 06:57:41;;;;;;;5.27;3.40;;;17.90;99.90;;;;;;4770609;30;20331;-77
2022/08/30 07:00:11;;;;;;;5.50;3.00;;;17.80;99.90;;;;;;4785904;30;20220;-77
2022/08/30 07:02:39;;;;;;;4.90;3.27;;;17.70;99.90;;;;;;4770504;30;20231;-74
2022/08/30 07:05:07;;;;;;;3.93;2.87;;;17.60;99.90;;;;;;4785584;30;20613;-73
2022/08/30 07:07:35;;;;;;;3.57;2.60;;;17.60;99.90;;;;;;4770614;30;20212;-78
2022/08/30 07:10:04;;;;;;;3.10;2.30;;;17.60;99.90;;;;;;4787864;29;20666;-74
2022/08/30 07:12:31;;;;;;;6.20;3.00;;;17.80;99.90;;;;;;4807324;29;20203;-70
2022/08/30 07:14:58;;;;;;;3.30;2.63;;;18.00;99.90;;;;;;4807276;29;20259;-76
2022/08/30 07:20:10;;;;;;;6.17;2.90;;;18.10;99.90;;;;;;4827678;29;20207;-79
2022/08/30 07:22:37;;;;;;;5.73;2.70;;;18.20;99.90;;;;;;4796427;29;20318;-78
2022/08/30 07:25:15;;;;;;;4.90;2.53;;;18.20;99.90;;;;;;4827167;29;20202;-77
2022/08/30 07:27:55;;;;;;;4.07;2.50;;;18.20;99.90;;;;;;4810937;29;20206;-78
2022/08/30 07:30:23;;;;;;;6.03;2.60;;;18.10;99.90;;;;;;4810922;29;20198;-79
2022/08/30 07:32:51;;;;;;;4.80;2.50;;;18.20;99.90;;;;;;4810742;29;20225;-77
2022/08/30 07:35:32;;;;;;;4.13;2.20;;;18.10;99.90;;;;;;4808210;29;20301;-81
2022/08/30 07:38:00;;;;;;;4.97;2.40;;;18.20;99.90;;;;;;4810781;29;20211;-79
2022/08/30 07:40:27;;;;;;;5.00;2.67;;;18.20;99.90;;;;;;4810883;29;20195;-79
2022/08/30 07:42:55;;;;;;;4.27;2.57;;;18.50;99.90;;;;;;4810592;29;20252;-78
2022/08/30 07:45:21;;;;;;;7.87;2.47;;;18.60;99.90;;;;;;4810494;29;20306;-79
2022/08/30 07:47:48;;;;;;;3.10;2.10;;;18.70;99.90;;;;;;4810983;29;20206;-81
2022/08/30 07:50:15;;;;;;;6.13;2.60;;;18.60;99.90;;;;;;4813921;29;20571;-81
2022/08/30 07:52:42;;;;;;;4.67;2.57;;;18.80;99.90;;;;;;4825809;29;20214;-80
2022/08/30 07:55:09;;;;;;;5.73;3.10;;;18.80;99.90;;;;;;4826925;29;20549;-82
2022/08/30 07:57:39;;;;;;;5.03;3.10;;;19.00;99.90;;;;;;4827028;29;20250;-78
2022/08/30 08:00:06;;;;;;;4.10;2.80;;;19.00;99.90;;;;;;4826695;29;20219;-83
2022/08/30 08:02:35;;;;;;;4.63;2.40;;;19.10;99.90;;;;;;4825661;29;20227;-77
2022/08/30 08:05:04;;;;;;;4.23;2.50;;;19.10;99.90;;;;;;4825130;29;20738;-79
2022/08/30 08:07:31;;;;;;;7.07;2.43;;;18.90;99.90;;;;;;4810891;29;20203;-76
2022/08/30 08:09:58;;;;;;;4.93;2.30;;;19.10;99.90;;;;;;4825398;29;20297;-73
2022/08/30 08:12:25;;;;;;;3.87;2.30;;;19.30;99.90;;;;;;4825000;29;20301;-78
2022/08/30 08:14:52;;;;;;;3.93;2.10;;;19.50;99.90;;;;;;4825267;29;20213;-75
2022/08/30 08:17:19;;;;;;;4.17;1.90;;;19.60;99.90;;;;;;4825457;29;20667;-81
2022/08/30 08:19:46;;;;;;;6.87;2.30;;;19.80;99.90;;;;;;4826362;29;20288;-82
2022/08/30 08:22:13;;;;;;;5.23;2.07;;;19.70;99.90;;;;;;4824956;29;20213;-80
2022/08/30 08:24:48;;;;;;;3.50;2.20;;;20.00;99.90;;;;;;4824904;29;20199;-77
2022/08/30 08:27:15;;;;;;;8.93;2.40;;;20.00;99.90;;;;;;4824640;29;20207;-79
2022/08/30 08:29:51;;;;;;;8.40;2.10;;;19.80;99.90;;;;;;4824210;29;20305;-79
2022/08/30 08:32:18;;;;;;;5.63;2.00;;;19.80;99.90;;;;;;4826029;29;20201;-80
2022/08/30 08:34:45;;;;;;;4.00;1.90;;;19.80;99.90;;;;;;4826177;29;20227;-74
2022/08/30 08:37:12;;;;;;;2.80;1.50;;;19.80;99.90;;;;;;4825683;29;20238;-73
2022/08/30 08:39:39;;;;;;;2.97;1.80;;;19.90;99.90;;;;;;4825791;29;20233;-77
2022/08/30 08:42:09;;;;;;;3.87;1.60;;;20.10;99.90;;;;;;4825073;29;20207;-79
2022/08/30 08:44:41;;;;;;;2.60;1.50;;;20.30;99.90;;;;;;4825571;29;20218;-71
2022/08/30 08:47:17;;;;;;;3.00;1.80;;;20.60;99.90;;;;;;4824570;29;20338;-74
2022/08/30 08:49:48;;;;;;;4.70;1.80;;;20.90;99.90;;;;;;4824503;29;20274;-75
2022/08/30 08:55:13;;;;;;;6.70;1.80;;;21.90;99.90;;;;;;4825642;29;20226;-79
2022/08/30 08:57:40;;;;;;;4.87;1.70;;;21.40;99.90;;;;;;4809608;29;20298;-79
2022/08/30 09:00:11;;;;;;;4.20;2.00;;;21.30;99.90;;;;;;4809149;29;20313;-75
2022/08/30 09:02:51;;;;;;;5.77;1.50;;;21.30;99.90;;;;;;4808824;29;20222;-74
2022/08/30 09:05:24;;;;;;;4.47;1.73;;;21.20;99.90;;;;;;4809280;29;20199;-81
2022/08/30 09:07:59;;;;;;;8.57;1.70;;;21.20;99.90;;;;;;4808798;29;20645;-72
2022/08/30 09:10:28;;;;;;;2.67;1.50;;;21.40;99.90;;;;;;4809423;29;20226;-77
2022/08/30 09:13:15;;;;;;;3.90;1.50;;;21.50;99.90;;;;;;4808837;29;20201;-81
2022/08/30 09:15:44;;;;;;;2.87;1.60;;;21.60;99.90;;;;;;4825345;29;20203;-75
2022/08/30 09:18:14;;;;;;;5.33;1.70;;;21.70;99.90;;;;;;4825346;29;20195;-71
2022/08/30 09:20:50;;;;;;;4.00;1.70;;;21.60;99.90;;;;;;4824989;29;20264;-84
2022/08/30 09:23:20;;;;;;;5.33;1.60;;;21.50;99.90;;;;;;4808898;29;20269;-81
2022/08/30 09:25:51;;;;;;;2.57;1.70;;;21.60;99.90;;;;;;4809066;29;20211;-80
2022/08/30 09:28:26;;;;;;;2.67;1.73;;;21.20;99.90;;;;;;4808824;29;20236;-82
2022/08/30 09:31:18;;;;;;;5.07;1.60;;;21.10;99.90;;;;;;4808493;29;20241;-80
2022/08/30 09:33:56;;;;;;;4.80;1.73;;;21.20;99.90;;;;;;4825922;29;20542;-80
2022/08/30 09:36:32;;;;;;;5.43;1.37;;;21.10;99.90;;;;;;4808892;29;20211;-82
2022/08/30 09:39:02;;;;;;;1.80;1.40;;;20.90;99.90;;;;;;4808240;29;20261;-79
2022/08/30 09:41:40;;;;;;;2.13;1.40;;;20.80;99.90;;;;;;4807683;29;20199;-76
2022/08/30 09:44:10;;;;;;;1.97;1.20;;;20.80;99.90;;;;;;4812167;29;20619;-80
2022/08/30 09:47:01;;;;;;;4.00;1.63;;;20.90;99.90;;;;;;4828382;29;20224;-83
2022/08/30 09:49:43;;;;;;;1.93;1.20;;;21.20;99.90;;;;;;4750974;30;20206;-82
2022/08/30 09:52:16;;;;;;;3.37;1.30;;;21.80;99.90;;;;;;4736579;30;20304;-75
2022/08/30 09:54:58;;;;;;;2.17;1.20;;;22.10;99.90;;;;;;4737394;30;20275;-74
2022/08/30 09:57:55;;;;;;;5.13;1.10;;;22.50;99.90;;;;;;4751476;30;20206;-78
2022/08/30 10:00:30;;;;;;;3.50;1.47;;;22.50;99.90;;;;;;4701725;30;20211;-76
2022/08/30 10:03:12;;;;;;;1.63;1.10;;;22.40;99.90;;;;;;4702185;30;20273;-79
2022/08/30 10:05:55;;;;;;;4.23;1.20;;;22.10;99.90;;;;;;4701063;30;20214;-76
2022/08/30 10:08:43;;;;;;;4.80;1.50;;;22.00;99.90;;;;;;4715556;30;20310;-76
2022/08/30 10:11:26;;;;;;;3.37;1.37;;;22.30;99.90;;;;;;4663313;30;20524;-73
2022/08/30 10:14:07;;;;;;;4.93;1.40;;;22.30;99.90;;;;;;4663610;30;20311;-71
2022/08/30 10:16:58;;;;;;;1.43;1.20;;;22.40;99.90;;;;;;4649769;30;20217;-76
2022/08/30 10:19:46;;;;;;;5.00;1.50;;;22.40;99.90;;;;;;4649206;30;20375;-73
2022/08/30 10:22:32;;;;;;;5.27;1.40;;;22.60;99.90;;;;;;4663413;30;20308;-76
2022/08/30 10:25:24;;;;;;;1.47;1.10;;;22.20;99.90;;;;;;4663408;30;20250;-74
2022/08/30 10:27:59;;;;;;;2.53;1.30;;;22.00;99.90;;;;;;4629533;31;20274;-77
2022/08/30 10:30:28;;;;;;;3.60;1.43;;;22.00;99.90;;;;;;4629526;31;20218;-77
2022/08/30 10:33:08;;;;;;;6.63;1.20;;;22.00;99.90;;;;;;4629643;31;20229;-80
2022/08/30 10:35:42;;;;;;;4.07;1.10;;;21.90;99.90;;;;;;4632443;31;20269;-80
2022/08/30 10:38:20;;;;;;;2.03;1.10;;;22.00;99.90;;;;;;4658598;30;20275;-77
2022/08/30 10:43:57;;;;;;;2.47;1.00;;;21.50;99.90;;;;;;4663059;30;20271;-74
2022/08/30 10:46:37;;;;;;;2.63;1.17;;;21.40;99.90;;;;;;4648766;30;20296;-74
2022/08/30 10:49:12;;;;;;;9.17;2.10;;;21.20;99.90;;;;;;4732806;30;20211;-73
2022/08/30 10:51:49;;;;;;;4.63;1.10;;;21.10;99.90;;;;;;4734740;30;20248;-75
2022/08/30 10:54:30;;;;;;;2.53;1.10;;;21.00;99.90;;;;;;4749873;30;20205;-75
2022/08/30 10:56:58;;;;;;;2.53;1.20;;;21.00;99.90;;;;;;4735111;30;20324;-75
2022/08/30 10:59:26;;;;;;;3.17;1.00;;;20.70;99.90;;;;;;4735513;30;20210;-78
2022/08/30 11:02:28;;;;;;;1.53;0.80;;;20.80;99.90;;;;;;4735401;30;20224;-76
2022/08/30 11:05:30;;;;;;;2.20;0.90;;;20.70;99.90;;;;;;4775295;29;20234;-74
2022/08/30 11:08:03;;;;;;;1.83;0.80;;;20.90;99.90;;;;;;4792687;29;20243;-77
2022/08/30 11:14:10;;;;;;;3.13;0.90;;;21.20;99.90;;;;;;4806938;29;20215;-80
2022/08/30 11:16:45;;;;;;;1.37;0.90;;;21.00;99.90;;;;;;4806967;29;20575;-81
2022/08/30 11:19:53;;;;;;;4.87;1.33;;;21.20;99.90;;;;;;4823550;29;20187;-79
2022/08/30 11:22:23;;;;;;;1.70;0.97;;;21.00;99.90;;;;;;4823088;29;20186;-81
2022/08/30 11:26:14;;;;;;;2.67;0.90;;;21.20;99.90;;;;;;4769863;30;20259;-77
2022/08/30 11:36:08;;;;;;;2.90;0.90;;;21.30;99.90;;;;;;4788112;29;20298;-80
2022/08/30 11:38:44;;;;;;;1.43;0.90;;;21.20;99.90;;;;;;4788681;29;20231;-83
2022/08/30 11:41:43;;;;;;;1.40;0.80;;;21.20;99.90;;;;;;4790250;29;20228;-78
2022/08/30 11:44:28;;;;;;;2.10;1.00;;;21.40;99.90;;;;;;4803198;29;20331;-81
2022/08/30 11:47:01;;;;;;;1.70;0.80;;;21.30;99.90;;;;;;4803003;29;20272;-77
2022/08/30 11:49:50;;;;;;;3.93;0.90;;;21.30;99.90;;;;;;4788434;29;20651;-85
2022/08/30 11:52:27;;;;;;;1.37;0.90;;;21.40;99.90;;;;;;4789729;29;20705;-86
2022/08/30 11:55:53;;;;;;;4.17;1.17;;;21.70;99.90;;;;;;4796155;29;20207;-78
2022/08/30 11:58:38;;;;;;;1.33;0.80;;;21.60;99.90;;;;;;4795340;29;20223;-79
2022/08/30 12:01:18;;;;;;;1.90;0.90;;;21.60;99.90;;;;;;4789448;29;20215;-85
2022/08/30 12:08:46;;;;;;;2.10;0.70;;;21.60;99.90;;;;;;4804714;29;20193;-87
2022/08/30 12:11:17;;;;;;;2.50;1.40;;;21.50;99.90;;;;;;4809937;29;20206;-82
2022/08/30 12:13:54;;;;;;;3.23;0.90;;;21.70;99.90;;;;;;4810735;29;20237;-87
2022/08/30 12:18:26;;;;;;;1.80;0.90;;;21.80;99.90;;;;;;4810070;29;20626;-83
2022/08/30 12:19:29;;;;;;;3.67;1.10;;;21.90;99.90;;;;;;4810269;29;20211;-76
2022/08/30 12:21:59;;;;;;;2.10;0.97;;;22.10;99.90;;;;;;4826346;29;20653;-81
2022/08/30 12:24:35;;;;;;;1.47;0.90;;;22.30;99.90;;;;;;4810491;29;20226;-84
2022/08/30 12:27:20;;;;;;;3.33;1.07;;;22.30;99.90;;;;;;4810750;29;20202;-78
2022/08/30 12:30:03;;;;;;;2.33;1.13;;;22.10;99.90;;;;;;4816318;29;20202;-79
2022/08/30 12:32:31;;;;;;;1.67;0.80;;;22.10;99.90;;;;;;4811163;29;20210;-77
2022/08/30 12:35:02;;;;;;;1.07;0.77;;;22.20;99.90;;;;;;4810700;29;20305;-79
2022/08/30 12:37:32;;;;;;;1.33;0.87;;;22.20;99.90;;;;;;4812800;29;20230;-83
2022/08/30 12:40:17;;;;;;;3.53;0.90;;;22.20;99.90;;;;;;4811759;29;20317;-81
2022/08/30 12:42:50;;;;;;;4.93;1.17;;;22.20;99.90;;;;;;4810262;29;20231;-77
2022/08/30 12:45:23;;;;;;;3.60;1.00;;;22.20;99.90;;;;;;4829014;29;20318;-78
2022/08/30 12:47:57;;;;;;;2.43;0.77;;;22.30;99.90;;;;;;4814415;29;20704;-81
2022/08/30 12:51:14;;;;;;;4.83;1.20;;;22.40;99.90;;;;;;4813397;29;20329;-81
2022/08/30 12:54:23;;;;;;;2.73;1.13;;;22.60;99.90;;;;;;4740060;30;20209;-81
2022/08/30 12:57:02;;;;;;;1.93;0.83;;;22.50;99.90;;;;;;4769519;30;20205;-81
2022/08/30 12:59:55;;;;;;;1.67;1.03;;;22.60;99.90;;;;;;4769578;30;20608;-79
2022/08/30 13:02:53;;;;;;;1.57;1.20;;;22.30;99.90;;;;;;4754516;30;20246;-81
2022/08/30 13:05:34;;;;;;;2.10;1.10;;;22.20;99.90;;;;;;4769627;30;20237;-78
2022/08/30 13:08:36;;;;;;;1.30;0.80;;;22.00;99.90;;;;;;4771242;30;20209;-83
2022/08/30 13:11:10;;;;;;;1.67;0.83;;;21.90;99.90;;;;;;4754743;30;20212;-76
2022/08/30 13:13:47;;;;;;;3.63;1.00;;;21.70;99.90;;;;;;4755025;30;20705;-86
2022/08/30 13:16:21;;;;;;;1.30;0.90;;;21.50;99.90;;;;;;4755589;30;20243;-87
2022/08/30 13:18:52;;;;;;;1.90;0.80;;;21.70;99.90;;;;;;4781175;29;20217;-82
2022/08/30 13:21:28;;;;;;;3.03;1.07;;;21.60;99.90;;;;;;4825790;29;20207;-86
2022/08/30 13:24:01;;;;;;;3.33;1.00;;;21.70;99.90;;;;;;4825594;29;20246;-86
2022/08/30 13:26:32;;;;;;;1.40;1.00;;;21.80;99.90;;;;;;4824312;29;20744;-83
2022/08/30 13:29:02;;;;;;;2.83;1.20;;;21.90;99.90;;;;;;4824336;29;20598;-82
2022/08/30 13:31:31;;;;;;;1.20;1.10;;;22.10;99.90;;;;;;4823880;29;20214;-81
2022/08/30 13:33:58;;;;;;;1.20;1.10;;;21.90;99.90;;;;;;4824829;29;20420;-78
2022/08/30 13:36:33;;;;;;;5.93;1.50;;;21.60;99.90;;;;;;4824023;29;20199;-76